sensor_id;sensor_type;location;lat;lon;timestamp;pressure;altitude;pressure_sealevel;temperature
76895;BMP280;65855;42.030;13.078;2023-04-01T00:01:30;93068.44;;;9.90
76895;BMP280;65855;42.030;13.078;2023-04-01T00:03:56;93069.91;;;10.04
76895;BMP280;65855;42.030;13.078;2023-04-01T00:06:21;93064.09;;;10.47
76895;BMP280;65855;42.030;13.078;2023-04-01T00:08:47;93087.34;;;10.65
76895;BMP280;65855;42.030;13.078;2023-04-01T00:11:13;93078.88;;;10.61
76895;BMP280;65855;42.030;13.078;2023-04-01T00:13:40;93086.44;;;10.61
76895;BMP280;65855;42.030;13.078;2023-04-01T00:16:06;93065.03;;;10.51
76895;BMP280;65855;42.030;13.078;2023-04-01T00:18:32;93039.03;;;10.42
76895;BMP280;65855;42.030;13.078;2023-04-01T00:20:57;93036.88;;;10.87
76895;BMP280;65855;42.030;13.078;2023-04-01T00:23:23;93046.97;;;10.87
76895;BMP280;65855;42.030;13.078;2023-04-01T00:25:48;93023.25;;;10.88
76895;BMP280;65855;42.030;13.078;2023-04-01T00:28:18;93016.75;;;10.95
76895;BMP280;65855;42.030;13.078;2023-04-01T00:30:44;93024.72;;;10.89
76895;BMP280;65855;42.030;13.078;2023-04-01T00:33:10;93008.38;;;10.86
76895;BMP280;65855;42.030;13.078;2023-04-01T00:35:36;93005.72;;;10.83
76895;BMP280;65855;42.030;13.078;2023-04-01T00:38:01;93010.75;;;10.83
76895;BMP280;65855;42.030;13.078;2023-04-01T00:42:54;93007.06;;;10.80
76895;BMP280;65855;42.030;13.078;2023-04-01T00:45:40;93007.81;;;10.89
76895;BMP280;65855;42.030;13.078;2023-04-01T00:48:10;93010.78;;;10.91
76895;BMP280;65855;42.030;13.078;2023-04-01T00:50:37;93012.31;;;11.01
76895;BMP280;65855;42.030;13.078;2023-04-01T00:53:04;93000.88;;;10.95
76895;BMP280;65855;42.030;13.078;2023-04-01T00:55:32;92997.72;;;10.81
76895;BMP280;65855;42.030;13.078;2023-04-01T00:57:59;92995.59;;;10.75
76895;BMP280;65855;42.030;13.078;2023-04-01T01:00:27;92995.19;;;10.81
76895;BMP280;65855;42.030;13.078;2023-04-01T01:02:52;92987.31;;;10.82
76895;BMP280;65855;42.030;13.078;2023-04-01T01:05:21;92995.56;;;10.66
76895;BMP280;65855;42.030;13.078;2023-04-01T01:08:02;92991.13;;;10.63
76895;BMP280;65855;42.030;13.078;2023-04-01T01:10:33;93007.91;;;10.76
76895;BMP280;65855;42.030;13.078;2023-04-01T01:13:13;92998.13;;;10.75
76895;BMP280;65855;42.030;13.078;2023-04-01T01:15:57;92980.94;;;10.77
76895;BMP280;65855;42.030;13.078;2023-04-01T01:37:44;92911.69;;;10.91
76895;BMP280;65855;42.030;13.078;2023-04-01T01:40:11;92918.22;;;10.92
76895;BMP280;65855;42.030;13.078;2023-04-01T01:42:41;92905.47;;;10.88
76895;BMP280;65855;42.030;13.078;2023-04-01T01:45:09;92884.81;;;10.78
76895;BMP280;65855;42.030;13.078;2023-04-01T01:47:36;92895.94;;;10.69
76895;BMP280;65855;42.030;13.078;2023-04-01T01:50:03;92883.34;;;10.77
76895;BMP280;65855;42.030;13.078;2023-04-01T01:52:30;92881.44;;;10.74
76895;BMP280;65855;42.030;13.078;2023-04-01T01:54:57;92895.66;;;10.70
76895;BMP280;65855;42.030;13.078;2023-04-01T01:57:26;92904.69;;;10.71
76895;BMP280;65855;42.030;13.078;2023-04-01T01:59:56;92903.19;;;10.62
76895;BMP280;65855;42.030;13.078;2023-04-01T02:02:25;92912.38;;;10.58
76895;BMP280;65855;42.030;13.078;2023-04-01T02:04:51;92925.69;;;10.50
76895;BMP280;65855;42.030;13.078;2023-04-01T02:07:22;92912.03;;;10.43
76895;BMP280;65855;42.030;13.078;2023-04-01T02:09:49;92899.97;;;10.32
76895;BMP280;65855;42.030;13.078;2023-04-01T02:12:16;92921.78;;;10.36
76895;BMP280;65855;42.030;13.078;2023-04-01T02:14:47;92918.25;;;10.45
76895;BMP280;65855;42.030;13.078;2023-04-01T02:17:23;92922.69;;;10.40
76895;BMP280;65855;42.030;13.078;2023-04-01T02:20:01;92916.56;;;10.32
76895;BMP280;65855;42.030;13.078;2023-04-01T02:22:32;92910.19;;;10.27
76895;BMP280;65855;42.030;13.078;2023-04-01T02:25:04;92907.84;;;10.30
76895;BMP280;65855;42.030;13.078;2023-04-01T02:27:31;92915.41;;;10.30
76895;BMP280;65855;42.030;13.078;2023-04-01T02:29:57;92905.84;;;10.19
76895;BMP280;65855;42.030;13.078;2023-04-01T02:32:24;92905.69;;;10.15
76895;BMP280;65855;42.030;13.078;2023-04-01T02:34:51;92910.03;;;10.23
76895;BMP280;65855;42.030;13.078;2023-04-01T02:37:17;92895.94;;;10.22
76895;BMP280;65855;42.030;13.078;2023-04-01T02:39:42;92883.06;;;10.24
76895;BMP280;65855;42.030;13.078;2023-04-01T02:42:08;92887.03;;;10.16
76895;BMP280;65855;42.030;13.078;2023-04-01T02:44:34;92895.94;;;10.22
76895;BMP280;65855;42.030;13.078;2023-04-01T02:47:00;92905.94;;;10.06
76895;BMP280;65855;42.030;13.078;2023-04-01T02:49:25;92886.28;;;10.16
76895;BMP280;65855;42.030;13.078;2023-04-01T02:51:51;92880.41;;;10.29
76895;BMP280;65855;42.030;13.078;2023-04-01T02:54:17;92872.41;;;10.35
76895;BMP280;65855;42.030;13.078;2023-04-01T02:56:43;92882.00;;;10.16
76895;BMP280;65855;42.030;13.078;2023-04-01T02:59:09;92892.53;;;10.27
76895;BMP280;65855;42.030;13.078;2023-04-01T03:01:34;92894.91;;;10.23
76895;BMP280;65855;42.030;13.078;2023-04-01T03:04:00;92895.94;;;10.22
76895;BMP280;65855;42.030;13.078;2023-04-01T03:06:25;92909.00;;;10.24
76895;BMP280;65855;42.030;13.078;2023-04-01T03:08:51;92904.53;;;10.21
76895;BMP280;65855;42.030;13.078;2023-04-01T03:11:16;92899.25;;;10.39
76895;BMP280;65855;42.030;13.078;2023-04-01T03:13:42;92898.41;;;10.44
76895;BMP280;65855;42.030;13.078;2023-04-01T03:16:07;92884.59;;;10.41
76895;BMP280;65855;42.030;13.078;2023-04-01T03:18:33;92887.69;;;10.30
76895;BMP280;65855;42.030;13.078;2023-04-01T03:21:12;92896.91;;;10.43
76895;BMP280;65855;42.030;13.078;2023-04-01T03:23:38;92889.84;;;10.61
76895;BMP280;65855;42.030;13.078;2023-04-01T03:26:03;92877.84;;;10.67
76895;BMP280;65855;42.030;13.078;2023-04-01T03:28:28;92883.22;;;10.82
76895;BMP280;65855;42.030;13.078;2023-04-01T03:30:54;92903.69;;;10.80
76895;BMP280;65855;42.030;13.078;2023-04-01T03:33:19;92895.47;;;10.67
76895;BMP280;65855;42.030;13.078;2023-04-01T03:35:45;92896.50;;;10.66
76895;BMP280;65855;42.030;13.078;2023-04-01T03:38:10;92901.94;;;10.43
76895;BMP280;65855;42.030;13.078;2023-04-01T03:40:36;92901.94;;;10.05
76895;BMP280;65855;42.030;13.078;2023-04-01T03:43:03;92900.69;;;9.94
76895;BMP280;65855;42.030;13.078;2023-04-01T03:45:33;92902.97;;;9.82
76895;BMP280;65855;42.030;13.078;2023-04-01T03:47:58;92900.44;;;9.82
76895;BMP280;65855;42.030;13.078;2023-04-01T03:50:24;92894.19;;;9.50
76895;BMP280;65855;42.030;13.078;2023-04-01T03:52:49;92899.22;;;9.28
76895;BMP280;65855;42.030;13.078;2023-04-01T03:55:15;92896.81;;;9.23
76895;BMP280;65855;42.030;13.078;2023-04-01T03:57:40;92899.81;;;9.12
76895;BMP280;65855;42.030;13.078;2023-04-01T04:00:06;92897.16;;;9.09
76895;BMP280;65855;42.030;13.078;2023-04-01T04:02:34;92898.09;;;8.99
76895;BMP280;65855;42.030;13.078;2023-04-01T04:05:00;92895.94;;;9.06
76895;BMP280;65855;42.030;13.078;2023-04-01T04:07:25;92903.75;;;9.05
76895;BMP280;65855;42.030;13.078;2023-04-01T04:09:50;92909.81;;;9.04
76895;BMP280;65855;42.030;13.078;2023-04-01T04:12:16;92907.31;;;9.04
76895;BMP280;65855;42.030;13.078;2023-04-01T04:14:41;92914.50;;;9.18
76895;BMP280;65855;42.030;13.078;2023-04-01T04:17:07;92913.38;;;9.24
76895;BMP280;65855;42.030;13.078;2023-04-01T04:19:38;92908.16;;;9.34
76895;BMP280;65855;42.030;13.078;2023-04-01T04:22:04;92916.13;;;9.36
76895;BMP280;65855;42.030;13.078;2023-04-01T04:24:29;92912.03;;;9.40
76895;BMP280;65855;42.030;13.078;2023-04-01T04:26:55;92905.19;;;9.54
76895;BMP280;65855;42.030;13.078;2023-04-01T04:29:20;92915.09;;;9.37
76895;BMP280;65855;42.030;13.078;2023-04-01T04:31:46;92897.16;;;9.30
76895;BMP280;65855;42.030;13.078;2023-04-01T04:34:11;92914.31;;;9.28
76895;BMP280;65855;42.030;13.078;2023-04-01T04:36:37;92912.81;;;9.27
76895;BMP280;65855;42.030;13.078;2023-04-01T04:39:02;92920.38;;;9.27
76895;BMP280;65855;42.030;13.078;2023-04-01T04:41:28;92926.31;;;9.31
76895;BMP280;65855;42.030;13.078;2023-04-01T04:43:55;92915.53;;;9.52
76895;BMP280;65855;42.030;13.078;2023-04-01T04:46:22;92909.38;;;9.23
76895;BMP280;65855;42.030;13.078;2023-04-01T04:48:48;92909.72;;;9.30
76895;BMP280;65855;42.030;13.078;2023-04-01T04:51:17;92919.09;;;9.38
76895;BMP280;65855;42.030;13.078;2023-04-01T04:53:43;92922.34;;;9.38
76895;BMP280;65855;42.030;13.078;2023-04-01T04:56:09;92921.91;;;9.36
76895;BMP280;65855;42.030;13.078;2023-04-01T04:58:36;92925.75;;;9.34
76895;BMP280;65855;42.030;13.078;2023-04-01T05:01:13;92925.69;;;9.12
76895;BMP280;65855;42.030;13.078;2023-04-01T05:03:39;92940.66;;;9.31
76895;BMP280;65855;42.030;13.078;2023-04-01T05:06:05;92947.06;;;9.36
76895;BMP280;65855;42.030;13.078;2023-04-01T05:08:31;92951.44;;;9.31
76895;BMP280;65855;42.030;13.078;2023-04-01T05:10:58;92950.66;;;9.22
76895;BMP280;65855;42.030;13.078;2023-04-01T05:13:24;92949.63;;;9.23
76895;BMP280;65855;42.030;13.078;2023-04-01T05:15:49;92946.28;;;9.49
76895;BMP280;65855;42.030;13.078;2023-04-01T05:18:15;92944.97;;;9.73
76895;BMP280;65855;42.030;13.078;2023-04-01T05:20:55;92955.19;;;9.55
76895;BMP280;65855;42.030;13.078;2023-04-01T05:23:21;92951.34;;;9.36
76895;BMP280;65855;42.030;13.078;2023-04-01T05:25:50;92953.53;;;9.51
76895;BMP280;65855;42.030;13.078;2023-04-01T05:28:19;92950.56;;;9.49
76895;BMP280;65855;42.030;13.078;2023-04-01T05:30:46;92943.81;;;9.58
76895;BMP280;65855;42.030;13.078;2023-04-01T05:33:12;92953.38;;;9.69
76895;BMP280;65855;42.030;13.078;2023-04-01T05:35:39;92948.97;;;9.74
76895;BMP280;65855;42.030;13.078;2023-04-01T05:38:05;92956.19;;;9.89
76895;BMP280;65855;42.030;13.078;2023-04-01T05:40:31;92961.22;;;9.89
76895;BMP280;65855;42.030;13.078;2023-04-01T05:42:57;92954.19;;;9.78
76895;BMP280;65855;42.030;13.078;2023-04-01T05:45:23;92964.66;;;9.71
76895;BMP280;65855;42.030;13.078;2023-04-01T05:47:49;92971.38;;;9.62
76895;BMP280;65855;42.030;13.078;2023-04-01T05:50:14;92970.34;;;9.63
76895;BMP280;65855;42.030;13.078;2023-04-01T05:52:40;92977.91;;;9.63
76895;BMP280;65855;42.030;13.078;2023-04-01T05:55:06;92984.41;;;9.64
76895;BMP280;65855;42.030;13.078;2023-04-01T05:57:32;92988.19;;;9.54
76895;BMP280;65855;42.030;13.078;2023-04-01T05:59:57;92990.81;;;9.14
76895;BMP280;65855;42.030;13.078;2023-04-01T06:02:23;92989.81;;;9.02
76895;BMP280;65855;42.030;13.078;2023-04-01T06:04:49;92994.47;;;8.95
76895;BMP280;65855;42.030;13.078;2023-04-01T06:07:16;92980.66;;;9.06
76895;BMP280;65855;42.030;13.078;2023-04-01T06:09:43;92973.44;;;9.82
76895;BMP280;65855;42.030;13.078;2023-04-01T06:15:29;92980.38;;;10.20
76895;BMP280;65855;42.030;13.078;2023-04-01T06:21:04;92960.88;;;11.35
76895;BMP280;65855;42.030;13.078;2023-04-01T06:26:15;92953.88;;;12.07
76895;BMP280;65855;42.030;13.078;2023-04-01T06:43:39;92930.25;;;12.85
76895;BMP280;65855;42.030;13.078;2023-04-01T06:51:32;92927.72;;;13.13
76895;BMP280;65855;42.030;13.078;2023-04-01T06:56:58;92944.44;;;12.77
76895;BMP280;65855;42.030;13.078;2023-04-01T06:59:28;92939.28;;;13.22
76895;BMP280;65855;42.030;13.078;2023-04-01T07:01:59;92936.81;;;12.86
76895;BMP280;65855;42.030;13.078;2023-04-01T07:04:38;92939.69;;;12.76
76895;BMP280;65855;42.030;13.078;2023-04-01T07:07:24;92935.44;;;12.51
76895;BMP280;65855;42.030;13.078;2023-04-01T07:09:54;92940.25;;;12.45
76895;BMP280;65855;42.030;13.078;2023-04-01T07:15:15;92946.41;;;12.64
76895;BMP280;65855;42.030;13.078;2023-04-01T07:17:43;92953.81;;;14.38
76895;BMP280;65855;42.030;13.078;2023-04-01T07:20:30;92949.72;;;15.39
76895;BMP280;65855;42.030;13.078;2023-04-01T07:22:59;92952.59;;;16.45
76895;BMP280;65855;42.030;13.078;2023-04-01T07:25:29;92956.34;;;17.24
76895;BMP280;65855;42.030;13.078;2023-04-01T07:28:00;92951.59;;;14.36
76895;BMP280;65855;42.030;13.078;2023-04-01T07:30:26;92955.78;;;16.00
76895;BMP280;65855;42.030;13.078;2023-04-01T07:35:43;92963.88;;;17.54
76895;BMP280;65855;42.030;13.078;2023-04-01T07:46:55;92969.97;;;15.12
76895;BMP280;65855;42.030;13.078;2023-04-01T07:49:30;92973.69;;;16.04
76895;BMP280;65855;42.030;13.078;2023-04-01T07:52:08;92986.28;;;16.12
76895;BMP280;65855;42.030;13.078;2023-04-01T07:55:00;92981.28;;;16.58
76895;BMP280;65855;42.030;13.078;2023-04-01T07:57:39;92976.31;;;16.91
76895;BMP280;65855;42.030;13.078;2023-04-01T08:02:58;92972.34;;;17.58
76895;BMP280;65855;42.030;13.078;2023-04-01T08:05:40;92969.97;;;18.39
76895;BMP280;65855;42.030;13.078;2023-04-01T08:11:37;92978.47;;;18.87
76895;BMP280;65855;42.030;13.078;2023-04-01T08:14:01;92972.16;;;19.54
76895;BMP280;65855;42.030;13.078;2023-04-01T08:17:02;92968.78;;;19.22
76895;BMP280;65855;42.030;13.078;2023-04-01T08:21:57;92975.06;;;19.27
76895;BMP280;65855;42.030;13.078;2023-04-01T08:24:57;92975.44;;;17.67
76895;BMP280;65855;42.030;13.078;2023-04-01T08:27:34;92991.28;;;16.51
76895;BMP280;65855;42.030;13.078;2023-04-01T08:32:46;92982.94;;;17.26
76895;BMP280;65855;42.030;13.078;2023-04-01T08:35:39;92982.09;;;17.37
76895;BMP280;65855;42.030;13.078;2023-04-01T08:38:29;92993.09;;;15.96
76895;BMP280;65855;42.030;13.078;2023-04-01T08:40:59;92979.16;;;18.25
76895;BMP280;65855;42.030;13.078;2023-04-01T09:00:33;92989.72;;;18.24
76895;BMP280;65855;42.030;13.078;2023-04-01T09:06:19;92985.88;;;17.62
76895;BMP280;65855;42.030;13.078;2023-04-01T09:11:02;92984.50;;;16.70
76895;BMP280;65855;42.030;13.078;2023-04-01T09:16:22;92988.34;;;17.40
76895;BMP280;65855;42.030;13.078;2023-04-01T09:19:15;92998.66;;;16.13
76895;BMP280;65855;42.030;13.078;2023-04-01T09:24:45;92998.41;;;15.91
76895;BMP280;65855;42.030;13.078;2023-04-01T09:44:35;92993.25;;;20.31
76895;BMP280;65855;42.030;13.078;2023-04-01T10:22:36;92971.69;;;20.65
76895;BMP280;65855;42.030;13.078;2023-04-01T10:33:38;92960.16;;;19.55
76895;BMP280;65855;42.030;13.078;2023-04-01T10:44:58;92968.06;;;18.55
76895;BMP280;65855;42.030;13.078;2023-04-01T10:55:48;92954.16;;;19.44
76895;BMP280;65855;42.030;13.078;2023-04-01T11:44:50;92891.69;;;22.21
76895;BMP280;65855;42.030;13.078;2023-04-01T11:50:21;92896.44;;;18.92
76895;BMP280;65855;42.030;13.078;2023-04-01T12:04:15;92881.19;;;18.07
76895;BMP280;65855;42.030;13.078;2023-04-01T12:09:52;92885.84;;;22.35
76895;BMP280;65855;42.030;13.078;2023-04-01T12:23:03;92876.47;;;19.26
76895;BMP280;65855;42.030;13.078;2023-04-01T12:40:13;92870.50;;;19.45
76895;BMP280;65855;42.030;13.078;2023-04-01T12:43:05;92862.78;;;24.75
76895;BMP280;65855;42.030;13.078;2023-04-01T12:55:48;92862.16;;;19.76
76895;BMP280;65855;42.030;13.078;2023-04-01T13:06:32;92853.72;;;17.08
76895;BMP280;65855;42.030;13.078;2023-04-01T13:12:01;92857.94;;;19.04
76895;BMP280;65855;42.030;13.078;2023-04-01T13:14:36;92864.31;;;16.95
76895;BMP280;65855;42.030;13.078;2023-04-01T13:25:26;92864.81;;;17.53
76895;BMP280;65855;42.030;13.078;2023-04-01T13:28:00;92863.28;;;16.81
76895;BMP280;65855;42.030;13.078;2023-04-01T13:33:25;92857.31;;;16.58
76895;BMP280;65855;42.030;13.078;2023-04-01T13:44:36;92862.34;;;17.37
76895;BMP280;65855;42.030;13.078;2023-04-01T13:52:29;92847.69;;;21.25
76895;BMP280;65855;42.030;13.078;2023-04-01T13:58:20;92862.56;;;20.53
76895;BMP280;65855;42.030;13.078;2023-04-01T14:10:15;92842.56;;;22.54
76895;BMP280;65855;42.030;13.078;2023-04-01T14:12:41;92848.66;;;23.69
76895;BMP280;65855;42.030;13.078;2023-04-01T14:20:41;92836.91;;;16.09
76895;BMP280;65855;42.030;13.078;2023-04-01T14:29:27;92828.16;;;21.94
76895;BMP280;65855;42.030;13.078;2023-04-01T14:34:50;92828.31;;;19.61
76895;BMP280;65855;42.030;13.078;2023-04-01T14:40:22;92816.00;;;16.80
76895;BMP280;65855;42.030;13.078;2023-04-01T14:51:03;92819.28;;;17.32
76895;BMP280;65855;42.030;13.078;2023-04-01T14:53:36;92827.16;;;18.02
76895;BMP280;65855;42.030;13.078;2023-04-01T14:56:04;92814.25;;;17.17
76895;BMP280;65855;42.030;13.078;2023-04-01T14:58:50;92818.00;;;17.05
76895;BMP280;65855;42.030;13.078;2023-04-01T15:01:43;92832.88;;;16.87
76895;BMP280;65855;42.030;13.078;2023-04-01T15:12:39;92834.22;;;15.90
76895;BMP280;65855;42.030;13.078;2023-04-01T15:31:29;92843.03;;;13.63
76895;BMP280;65855;42.030;13.078;2023-04-01T15:42:42;92841.91;;;13.40
76895;BMP280;65855;42.030;13.078;2023-04-01T15:45:34;92842.69;;;13.52
76895;BMP280;65855;42.030;13.078;2023-04-01T15:48:31;92843.78;;;12.91
76895;BMP280;65855;42.030;13.078;2023-04-01T16:02:29;92847.06;;;13.44
76895;BMP280;65855;42.030;13.078;2023-04-01T16:04:58;92847.25;;;13.07
76895;BMP280;65855;42.030;13.078;2023-04-01T16:07:49;92843.41;;;13.01
76895;BMP280;65855;42.030;13.078;2023-04-01T16:21:57;92827.84;;;12.91
76895;BMP280;65855;42.030;13.078;2023-04-01T16:26:57;92833.53;;;12.59
76895;BMP280;65855;42.030;13.078;2023-04-01T16:29:48;92837.72;;;12.84
76895;BMP280;65855;42.030;13.078;2023-04-01T16:35:03;92848.22;;;12.94
76895;BMP280;65855;42.030;13.078;2023-04-01T16:37:38;92846.78;;;12.85
76895;BMP280;65855;42.030;13.078;2023-04-01T16:45:57;92869.81;;;12.35
76895;BMP280;65855;42.030;13.078;2023-04-01T16:48:49;92869.09;;;12.26
76895;BMP280;65855;42.030;13.078;2023-04-01T16:51:17;92873.44;;;12.17
76895;BMP280;65855;42.030;13.078;2023-04-01T16:53:49;92871.69;;;12.09
76895;BMP280;65855;42.030;13.078;2023-04-01T16:56:23;92876.53;;;11.77
76895;BMP280;65855;42.030;13.078;2023-04-01T16:59:06;92882.31;;;11.86
76895;BMP280;65855;42.030;13.078;2023-04-01T17:07:15;92881.59;;;11.77
76895;BMP280;65855;42.030;13.078;2023-04-01T17:10:13;92881.41;;;11.82
76895;BMP280;65855;42.030;13.078;2023-04-01T17:18:50;92897.19;;;11.63
76895;BMP280;65855;42.030;13.078;2023-04-01T17:21:31;92900.47;;;11.55
76895;BMP280;65855;42.030;13.078;2023-04-01T17:26:47;92897.06;;;11.59
76895;BMP280;65855;42.030;13.078;2023-04-01T17:29:26;92896.91;;;11.56
76895;BMP280;65855;42.030;13.078;2023-04-01T17:42:52;92890.47;;;10.92
76895;BMP280;65855;42.030;13.078;2023-04-01T17:45:31;92904.44;;;10.98
76895;BMP280;65855;42.030;13.078;2023-04-01T18:01:19;92906.56;;;10.11
76895;BMP280;65855;42.030;13.078;2023-04-01T18:06:39;92899.97;;;10.23
76895;BMP280;65855;42.030;13.078;2023-04-01T18:12:22;92908.06;;;10.20
76895;BMP280;65855;42.030;13.078;2023-04-01T18:15:26;92904.53;;;10.21
76895;BMP280;65855;42.030;13.078;2023-04-01T18:18:30;92909.22;;;10.14
76895;BMP280;65855;42.030;13.078;2023-04-01T18:26:37;92912.50;;;9.85
76895;BMP280;65855;42.030;13.078;2023-04-01T18:35:00;92909.09;;;9.89
76895;BMP280;65855;42.030;13.078;2023-04-01T18:37:34;92910.66;;;9.34
76895;BMP280;65855;42.030;13.078;2023-04-01T18:40:32;92917.63;;;9.37
76895;BMP280;65855;42.030;13.078;2023-04-01T18:48:33;92915.09;;;9.15
76895;BMP280;65855;42.030;13.078;2023-04-01T18:51:11;92925.41;;;9.27
76895;BMP280;65855;42.030;13.078;2023-04-01T18:56:47;92937.03;;;8.88
76895;BMP280;65855;42.030;13.078;2023-04-01T18:59:29;92937.06;;;8.75
76895;BMP280;65855;42.030;13.078;2023-04-01T19:02:24;92946.47;;;8.30
76895;BMP280;65855;42.030;13.078;2023-04-01T19:04:56;92948.09;;;8.21
76895;BMP280;65855;42.030;13.078;2023-04-01T19:10:00;92960.88;;;8.25
76895;BMP280;65855;42.030;13.078;2023-04-01T19:12:37;92961.25;;;8.32
76895;BMP280;65855;42.030;13.078;2023-04-01T19:26:40;92968.56;;;7.52
76895;BMP280;65855;42.030;13.078;2023-04-01T19:32:33;92965.91;;;7.44
76895;BMP280;65855;42.030;13.078;2023-04-01T19:37:40;92962.47;;;7.40
76895;BMP280;65855;42.030;13.078;2023-04-01T19:45:41;92978.31;;;7.18
76895;BMP280;65855;42.030;13.078;2023-04-01T19:50:55;92971.72;;;6.62
76895;BMP280;65855;42.030;13.078;2023-04-01T19:53:29;92967.25;;;6.59
76895;BMP280;65855;42.030;13.078;2023-04-01T19:56:16;92970.22;;;6.61
76895;BMP280;65855;42.030;13.078;2023-04-01T19:59:00;92968.31;;;6.76
76895;BMP280;65855;42.030;13.078;2023-04-01T20:01:43;92962.66;;;6.20
76895;BMP280;65855;42.030;13.078;2023-04-01T20:04:24;92959.38;;;6.24
76895;BMP280;65855;42.030;13.078;2023-04-01T20:07:07;92949.88;;;6.68
76895;BMP280;65855;42.030;13.078;2023-04-01T20:20:21;92943.47;;;6.98
76895;BMP280;65855;42.030;13.078;2023-04-01T20:23:34;92945.97;;;6.98
76895;BMP280;65855;42.030;13.078;2023-04-01T20:26:18;92946.34;;;7.10
76895;BMP280;65855;42.030;13.078;2023-04-01T20:28:43;92945.66;;;7.22
76895;BMP280;65855;42.030;13.078;2023-04-01T20:31:21;92951.81;;;7.12
76895;BMP280;65855;42.030;13.078;2023-04-01T20:34:14;92951.00;;;7.16
76895;BMP280;65855;42.030;13.078;2023-04-01T20:39:43;92950.50;;;7.32
76895;BMP280;65855;42.030;13.078;2023-04-01T20:48:00;92954.16;;;7.58
76895;BMP280;65855;42.030;13.078;2023-04-01T20:50:44;92958.38;;;7.44
76895;BMP280;65855;42.030;13.078;2023-04-01T20:53:43;92957.03;;;7.15
76895;BMP280;65855;42.030;13.078;2023-04-01T20:59:09;92963.91;;;6.87
76895;BMP280;65855;42.030;13.078;2023-04-01T21:26:33;92947.44;;;6.40
76895;BMP280;65855;42.030;13.078;2023-04-01T21:32:12;92942.66;;;6.43
76895;BMP280;65855;42.030;13.078;2023-04-01T21:43:01;92950.38;;;5.68
76895;BMP280;65855;42.030;13.078;2023-04-01T22:00:29;92957.53;;;6.07
76895;BMP280;65855;42.030;13.078;2023-04-01T22:05:56;92967.03;;;6.33
76895;BMP280;65855;42.030;13.078;2023-04-01T22:11:19;92975.97;;;6.16
76895;BMP280;65855;42.030;13.078;2023-04-01T22:14:06;92969.59;;;6.05
76895;BMP280;65855;42.030;13.078;2023-04-01T22:16:48;92970.81;;;5.79
76895;BMP280;65855;42.030;13.078;2023-04-01T22:21:59;92964.53;;;5.44
76895;BMP280;65855;42.030;13.078;2023-04-01T22:25:00;92952.56;;;5.41
76895;BMP280;65855;42.030;13.078;2023-04-01T22:27:45;92953.97;;;5.52
76895;BMP280;65855;42.030;13.078;2023-04-01T22:30:28;92955.63;;;5.66
76895;BMP280;65855;42.030;13.078;2023-04-01T22:33:07;92952.50;;;5.51
76895;BMP280;65855;42.030;13.078;2023-04-01T22:43:32;92944.66;;;5.62
76895;BMP280;65855;42.030;13.078;2023-04-01T22:46:26;92947.28;;;5.48
76895;BMP280;65855;42.030;13.078;2023-04-01T22:51:51;92950.50;;;5.86
76895;BMP280;65855;42.030;13.078;2023-04-01T22:54:24;92942.50;;;5.84
76895;BMP280;65855;42.030;13.078;2023-04-01T23:02:39;92924.66;;;5.29
76895;BMP280;65855;42.030;13.078;2023-04-01T23:05:11;92933.38;;;5.32
76895;BMP280;65855;42.030;13.078;2023-04-01T23:10:22;92925.31;;;5.40
76895;BMP280;65855;42.030;13.078;2023-04-01T23:12:51;92931.94;;;5.26
76895;BMP280;65855;42.030;13.078;2023-04-01T23:15:20;92926.84;;;5.41
76895;BMP280;65855;42.030;13.078;2023-04-01T23:23:47;92911.53;;;5.47
76895;BMP280;65855;42.030;13.078;2023-04-01T23:26:38;92897.16;;;5.34
76895;BMP280;65855;42.030;13.078;2023-04-01T23:29:13;92896.91;;;5.31
76895;BMP280;65855;42.030;13.078;2023-04-01T23:31:44;92879.34;;;5.74
76895;BMP280;65855;42.030;13.078;2023-04-01T23:36:41;92878.63;;;5.68
76895;BMP280;65855;42.030;13.078;2023-04-01T23:41:48;92871.25;;;5.53
76895;BMP280;65855;42.030;13.078;2023-04-01T23:44:14;92870.28;;;5.77
76895;BMP280;65855;42.030;13.078;2023-04-01T23:46:42;92876.63;;;5.70
76895;BMP280;65855;42.030;13.078;2023-04-01T23:49:14;92885.53;;;5.48
76895;BMP280;65855;42.030;13.078;2023-04-01T23:51:55;92882.09;;;5.39
76895;BMP280;65855;42.030;13.078;2023-04-01T23:54:28;92882.19;;;5.57
76895;BMP280;65855;42.030;13.078;2023-04-01T23:56:56;92885.13;;;5.36
76895;BMP280;65855;42.030;13.078;2023-04-01T23:59:33;92870.75;;;4.91
